Time,TemperatureF,DewpointF,PressureIn,WindDirection,WindDirectionDegrees,WindSpeedMPH,WindSpeedGustMPH,Humidity,HourlyPrecipIn,Conditions,Clouds,dailyrainin,SoftwareType,DateUTC
2013-08-14 00:02:00,81.0,77.1,29.61,SW,225,8.9,-999.0,88,-99.99,,,0.00,Acu-Link.com,2013-08-14 04:02:00,
2013-08-14 00:18:00,80.8,76.6,29.60,WSW,247,4.2,-999.0,87,-99.99,,,0.00,Acu-Link.com,2013-08-14 04:18:00,
2013-08-14 00:42:00,79.5,73.9,29.61,WSW,247,4.2,-999.0,83,-99.99,,,0.00,Acu-Link.com,2013-08-14 04:42:00,
2013-08-14 00:58:00,81.3,75.3,29.61,SE,135,5.8,-999.0,82,-99.99,,,0.00,Acu-Link.com,2013-08-14 04:58:00,
2013-08-14 01:18:00,81.1,75.4,29.60,SSW,202,6.3,-999.0,83,-99.99,,,0.00,Acu-Link.com,2013-08-14 05:18:00,
2013-08-14 01:45:00,80.8,76.9,29.59,SSW,202,9.4,-999.0,88,-99.99,,,0.00,Acu-Link.com,2013-08-14 05:45:00,
2013-08-14 02:03:00,75.7,73.8,29.63,NNE,22,3.2,-999.0,94,-99.99,,,0.48,Acu-Link.com,2013-08-14 06:03:00,
2013-08-14 02:18:00,75.2,73.3,29.62,SSW,202,1.7,-999.0,94,-99.99,,,0.53,Acu-Link.com,2013-08-14 06:18:00,
2013-08-14 02:34:00,75.2,73.3,29.61,SSE,157,1.1,-999.0,94,-99.99,,,0.56,Acu-Link.com,2013-08-14 06:34:00,
2013-08-14 03:19:00,75.2,73.3,29.59,South,180,4.7,-999.0,94,-99.99,,,0.58,Acu-Link.com,2013-08-14 07:19:00,
2013-08-14 03:38:00,75.2,73.3,29.59,WSW,247,4.2,-999.0,94,-99.99,,,0.59,Acu-Link.com,2013-08-14 07:38:00,
2013-08-14 08:55:00,76.5,73.3,29.67,East,90,1.1,-999.0,90,-99.99,,,0.59,Acu-Link.com,2013-08-14 12:55:00,
2013-08-14 11:30:00,79.7,74.1,29.72,East,90,4.2,-999.0,83,-99.99,,,0.59,Acu-Link.com,2013-08-14 15:30:00,
2013-08-14 11:50:00,79.5,73.9,29.73,NNE,22,5.3,-999.0,83,-99.99,,,0.59,Acu-Link.com,2013-08-14 15:50:00,
2013-08-14 12:06:00,80.2,74.2,29.73,ESE,112,2.7,-999.0,82,-99.99,,,0.59,Acu-Link.com,2013-08-14 16:06:00,
2013-08-14 12:21:00,80.2,72.7,29.72,ESE,112,7.3,-999.0,78,-99.99,,,0.60,Acu-Link.com,2013-08-14 16:21:00,
2013-08-14 12:36:00,80.2,72.7,29.72,ENE,67,3.7,-999.0,78,-99.99,,,0.60,Acu-Link.com,2013-08-14 16:36:00,
2013-08-14 13:07:00,80.1,72.2,29.73,NNE,22,2.7,-999.0,77,-99.99,,,0.60,Acu-Link.com,2013-08-14 17:07:00,
2013-08-14 13:37:00,81.0,71.9,29.73,ESE,112,2.2,-999.0,74,-99.99,,,0.60,Acu-Link.com,2013-08-14 17:37:00,
2013-08-14 13:52:00,82.2,72.3,29.73,North,0,3.7,-999.0,72,-99.99,,,0.60,Acu-Link.com,2013-08-14 17:52:00,
2013-08-14 14:07:00,81.7,72.6,29.73,NNE,22,4.2,-999.0,74,-99.99,,,0.60,Acu-Link.com,2013-08-14 18:07:00,
2013-08-14 14:22:00,79.7,71.8,29.74,NNE,22,2.7,-999.0,77,-99.99,,,0.60,Acu-Link.com,2013-08-14 18:22:00,
2013-08-14 14:37:00,79.9,71.6,29.74,ESE,112,3.7,-999.0,76,-99.99,,,0.60,Acu-Link.com,2013-08-14 18:37:00,
2013-08-14 15:07:00,80.1,71.4,29.74,NNE,22,2.2,-999.0,75,-99.99,,,0.60,Acu-Link.com,2013-08-14 19:07:00,
2013-08-14 15:23:00,79.2,71.0,29.74,NE,45,6.3,-999.0,76,-99.99,,,0.60,Acu-Link.com,2013-08-14 19:23:00,
2013-08-14 15:38:00,78.8,70.6,29.74,NE,45,4.2,-999.0,76,-99.99,,,0.60,Acu-Link.com,2013-08-14 19:38:00,
2013-08-14 15:53:00,79.3,71.4,29.74,NNW,337,2.2,-999.0,77,-99.99,,,0.60,Acu-Link.com,2013-08-14 19:53:00,
2013-08-14 16:08:00,80.6,71.1,29.74,ENE,67,4.7,-999.0,73,-99.99,,,0.60,Acu-Link.com,2013-08-14 20:08:00,
2013-08-14 16:53:00,79.7,69.0,29.74,NNE,22,10.9,-999.0,70,-99.99,,,0.60,Acu-Link.com,2013-08-14 20:53:00,
2013-08-14 17:08:00,77.9,68.1,29.75,SE,135,2.7,-999.0,72,-99.99,,,0.60,Acu-Link.com,2013-08-14 21:08:00,
2013-08-14 17:23:00,76.8,67.5,29.76,East,90,2.2,-999.0,73,-99.99,,,0.60,Acu-Link.com,2013-08-14 21:23:00,
2013-08-14 17:39:00,76.1,66.8,29.77,NNW,337,3.2,-999.0,73,-99.99,,,0.60,Acu-Link.com,2013-08-14 21:39:00,
2013-08-14 17:54:00,75.0,66.1,29.76,ESE,112,3.7,-999.0,74,-99.99,,,0.60,Acu-Link.com,2013-08-14 21:54:00,
2013-08-14 18:09:00,74.5,65.7,29.76,North,0,4.7,-999.0,74,-99.99,,,0.60,Acu-Link.com,2013-08-14 22:09:00,
2013-08-14 18:24:00,73.9,65.5,29.77,SE,135,2.7,-999.0,75,-99.99,,,0.60,Acu-Link.com,2013-08-14 22:24:00,
2013-08-14 18:39:00,73.6,65.6,29.76,NE,45,5.8,-999.0,76,-99.99,,,0.60,Acu-Link.com,2013-08-14 22:39:00,
2013-08-14 18:54:00,73.2,65.9,29.75,ESE,112,1.7,-999.0,78,-99.99,,,0.60,Acu-Link.com,2013-08-14 22:54:00,
2013-08-14 19:09:00,73.2,66.6,29.76,NNE,22,1.7,-999.0,80,-99.99,,,0.60,Acu-Link.com,2013-08-14 23:09:00,
2013-08-14 19:24:00,72.7,66.5,29.77,ENE,67,3.7,-999.0,81,-99.99,,,0.60,Acu-Link.com,2013-08-14 23:24:00,
2013-08-14 19:41:00,72.3,66.5,29.79,East,90,1.7,-999.0,82,-99.99,,,0.60,Acu-Link.com,2013-08-14 23:41:00,
2013-08-14 19:58:00,72.0,66.2,29.79,NNE,22,1.1,-999.0,82,-99.99,,,0.60,Acu-Link.com,2013-08-14 23:58:00,
2013-08-14 20:48:00,71.8,66.3,29.79,East,90,2.2,-999.0,83,-99.99,,,0.60,Acu-Link.com,2013-08-15 00:48:00,
2013-08-14 21:04:00,71.6,65.8,29.81,ENE,67,2.2,-999.0,82,-99.99,,,0.60,Acu-Link.com,2013-08-15 01:04:00,
2013-08-14 21:20:00,71.8,64.6,29.82,NNE,22,2.7,-999.0,78,-99.99,,,0.60,Acu-Link.com,2013-08-15 01:20:00,
2013-08-14 21:36:00,72.0,64.0,29.82,SE,135,3.7,-999.0,76,-99.99,,,0.60,Acu-Link.com,2013-08-15 01:36:00,
2013-08-14 21:54:00,72.0,64.0,29.84,NE,45,2.2,-999.0,76,-99.99,,,0.60,Acu-Link.com,2013-08-15 01:54:00,
2013-08-14 22:11:00,71.6,64.0,29.83,East,90,6.8,-999.0,77,-99.99,,,0.60,Acu-Link.com,2013-08-15 02:11:00,
2013-08-14 22:26:00,71.4,63.8,29.82,NNE,22,4.2,-999.0,77,-99.99,,,0.60,Acu-Link.com,2013-08-15 02:26:00,
2013-08-14 22:43:00,71.4,64.2,29.83,NW,315,2.7,-999.0,78,-99.99,,,0.60,Acu-Link.com,2013-08-15 02:43:00,
2013-08-14 23:00:00,71.4,64.5,29.84,ENE,67,2.7,-999.0,79,-99.99,,,0.60,Acu-Link.com,2013-08-15 03:00:00,
2013-08-14 23:16:00,71.4,63.8,29.83,NNE,22,3.7,-999.0,77,-99.99,,,0.60,Acu-Link.com,2013-08-15 03:16:00,
2013-08-14 23:31:00,71.4,63.4,29.83,ENE,67,1.7,-999.0,76,-99.99,,,0.60,Acu-Link.com,2013-08-15 03:31:00,
2013-08-14 23:47:00,71.6,62.9,29.83,WSW,247,6.8,-999.0,74,-99.99,,,0.60,Acu-Link.com,2013-08-15 03:47:00,